sensor_id;sensor_type;location;lat;lon;timestamp;P1;durP1;ratioP1;P2;durP2;ratioP2
71343;SDS011;59146;43.850;25.948;2023-05-07T00:01:50;10.45;;;5.07;;
71343;SDS011;59146;43.850;25.948;2023-05-07T00:04:16;12.00;;;5.07;;
71343;SDS011;59146;43.850;25.948;2023-05-07T00:06:42;8.20;;;5.30;;
71343;SDS011;59146;43.850;25.948;2023-05-07T00:09:07;10.07;;;5.30;;
71343;SDS011;59146;43.850;25.948;2023-05-07T00:11:33;9.75;;;5.65;;
71343;SDS011;59146;43.850;25.948;2023-05-07T00:13:59;14.98;;;5.95;;
71343;SDS011;59146;43.850;25.948;2023-05-07T00:16:24;19.92;;;5.78;;
71343;SDS011;59146;43.850;25.948;2023-05-07T00:18:50;13.20;;;6.20;;
71343;SDS011;59146;43.850;25.948;2023-05-07T00:21:15;10.45;;;6.78;;
71343;SDS011;59146;43.850;25.948;2023-05-07T00:23:41;11.48;;;6.50;;
71343;SDS011;59146;43.850;25.948;2023-05-07T00:26:06;10.77;;;6.30;;
71343;SDS011;59146;43.850;25.948;2023-05-07T00:28:32;10.95;;;6.80;;
71343;SDS011;59146;43.850;25.948;2023-05-07T00:30:57;11.27;;;7.35;;
71343;SDS011;59146;43.850;25.948;2023-05-07T00:33:23;18.20;;;7.00;;
71343;SDS011;59146;43.850;25.948;2023-05-07T00:35:48;12.63;;;7.32;;
71343;SDS011;59146;43.850;25.948;2023-05-07T00:38:14;14.82;;;7.13;;
71343;SDS011;59146;43.850;25.948;2023-05-07T00:40:41;15.25;;;7.75;;
71343;SDS011;59146;43.850;25.948;2023-05-07T00:43:06;19.00;;;7.63;;
71343;SDS011;59146;43.850;25.948;2023-05-07T00:45:32;12.40;;;7.53;;
71343;SDS011;59146;43.850;25.948;2023-05-07T00:47:59;20.08;;;8.13;;
71343;SDS011;59146;43.850;25.948;2023-05-07T00:50:28;15.68;;;7.68;;
71343;SDS011;59146;43.850;25.948;2023-05-07T00:52:55;18.98;;;6.95;;
71343;SDS011;59146;43.850;25.948;2023-05-07T00:55:21;12.90;;;7.32;;
71343;SDS011;59146;43.850;25.948;2023-05-07T00:57:48;10.63;;;7.18;;
71343;SDS011;59146;43.850;25.948;2023-05-07T01:00:15;11.48;;;7.30;;
71343;SDS011;59146;43.850;25.948;2023-05-07T01:02:41;17.13;;;7.93;;
71343;SDS011;59146;43.850;25.948;2023-05-07T01:05:08;12.05;;;6.85;;
71343;SDS011;59146;43.850;25.948;2023-05-07T01:07:36;11.63;;;7.07;;
71343;SDS011;59146;43.850;25.948;2023-05-07T01:10:04;11.23;;;6.13;;
71343;SDS011;59146;43.850;25.948;2023-05-07T01:12:30;16.98;;;7.75;;
71343;SDS011;59146;43.850;25.948;2023-05-07T01:14:56;13.85;;;7.18;;
71343;SDS011;59146;43.850;25.948;2023-05-07T01:17:22;9.95;;;7.00;;
71343;SDS011;59146;43.850;25.948;2023-05-07T01:19:48;14.93;;;7.13;;
71343;SDS011;59146;43.850;25.948;2023-05-07T01:22:15;13.07;;;6.07;;
71343;SDS011;59146;43.850;25.948;2023-05-07T01:24:45;19.20;;;7.07;;
71343;SDS011;59146;43.850;25.948;2023-05-07T01:27:11;12.85;;;6.10;;
71343;SDS011;59146;43.850;25.948;2023-05-07T01:29:36;9.77;;;5.65;;
71343;SDS011;59146;43.850;25.948;2023-05-07T01:32:02;11.00;;;6.35;;
71343;SDS011;59146;43.850;25.948;2023-05-07T01:34:28;11.32;;;6.10;;
71343;SDS011;59146;43.850;25.948;2023-05-07T01:36:57;12.10;;;6.20;;
71343;SDS011;59146;43.850;25.948;2023-05-07T01:39:24;13.38;;;6.75;;
71343;SDS011;59146;43.850;25.948;2023-05-07T01:41:52;10.23;;;6.78;;
71343;SDS011;59146;43.850;25.948;2023-05-07T01:44:19;10.95;;;6.65;;
71343;SDS011;59146;43.850;25.948;2023-05-07T01:46:45;10.98;;;6.75;;
71343;SDS011;59146;43.850;25.948;2023-05-07T01:49:12;13.52;;;6.47;;
71343;SDS011;59146;43.850;25.948;2023-05-07T01:51:37;10.75;;;6.35;;
71343;SDS011;59146;43.850;25.948;2023-05-07T01:54:04;11.63;;;6.32;;
71343;SDS011;59146;43.850;25.948;2023-05-07T01:56:30;11.60;;;6.18;;
71343;SDS011;59146;43.850;25.948;2023-05-07T01:58:56;6.32;;;5.68;;
71343;SDS011;59146;43.850;25.948;2023-05-07T02:01:21;13.55;;;6.15;;
71343;SDS011;59146;43.850;25.948;2023-05-07T02:03:47;11.15;;;6.20;;
71343;SDS011;59146;43.850;25.948;2023-05-07T02:06:12;12.35;;;6.57;;
71343;SDS011;59146;43.850;25.948;2023-05-07T02:08:38;13.65;;;6.82;;
71343;SDS011;59146;43.850;25.948;2023-05-07T02:11:03;11.68;;;6.63;;
71343;SDS011;59146;43.850;25.948;2023-05-07T02:13:29;11.40;;;6.47;;
71343;SDS011;59146;43.850;25.948;2023-05-07T02:15:57;16.35;;;7.80;;
71343;SDS011;59146;43.850;25.948;2023-05-07T02:18:22;12.73;;;7.18;;
71343;SDS011;59146;43.850;25.948;2023-05-07T02:20:48;17.35;;;7.75;;
71343;SDS011;59146;43.850;25.948;2023-05-07T02:23:13;18.08;;;8.48;;
71343;SDS011;59146;43.850;25.948;2023-05-07T02:25:39;15.98;;;8.88;;
71343;SDS011;59146;43.850;25.948;2023-05-07T02:28:04;11.95;;;8.90;;
71343;SDS011;59146;43.850;25.948;2023-05-07T02:30:29;16.63;;;8.48;;
71343;SDS011;59146;43.850;25.948;2023-05-07T02:32:55;11.70;;;8.52;;
71343;SDS011;59146;43.850;25.948;2023-05-07T02:35:20;18.33;;;8.15;;
71343;SDS011;59146;43.850;25.948;2023-05-07T02:37:46;13.38;;;8.50;;
71343;SDS011;59146;43.850;25.948;2023-05-07T02:40:11;13.23;;;8.20;;
71343;SDS011;59146;43.850;25.948;2023-05-07T02:42:37;14.00;;;8.27;;
71343;SDS011;59146;43.850;25.948;2023-05-07T02:45:02;15.88;;;8.65;;
71343;SDS011;59146;43.850;25.948;2023-05-07T02:47:28;11.48;;;8.18;;
71343;SDS011;59146;43.850;25.948;2023-05-07T02:49:54;13.50;;;7.72;;
71343;SDS011;59146;43.850;25.948;2023-05-07T02:52:20;9.82;;;7.38;;
71343;SDS011;59146;43.850;25.948;2023-05-07T02:54:45;13.32;;;8.10;;
71343;SDS011;59146;43.850;25.948;2023-05-07T02:57:11;15.88;;;7.30;;
71343;SDS011;59146;43.850;25.948;2023-05-07T02:59:36;14.68;;;6.70;;
71343;SDS011;59146;43.850;25.948;2023-05-07T03:02:01;10.82;;;6.53;;
71343;SDS011;59146;43.850;25.948;2023-05-07T03:04:27;18.45;;;6.43;;
71343;SDS011;59146;43.850;25.948;2023-05-07T03:06:52;16.10;;;6.38;;
71343;SDS011;59146;43.850;25.948;2023-05-07T03:09:17;12.63;;;6.70;;
71343;SDS011;59146;43.850;25.948;2023-05-07T03:11:43;9.10;;;6.18;;
71343;SDS011;59146;43.850;25.948;2023-05-07T03:14:08;9.98;;;7.03;;
71343;SDS011;59146;43.850;25.948;2023-05-07T03:16:34;10.00;;;6.65;;
71343;SDS011;59146;43.850;25.948;2023-05-07T03:18:59;11.95;;;6.80;;
71343;SDS011;59146;43.850;25.948;2023-05-07T03:21:25;12.98;;;6.10;;
71343;SDS011;59146;43.850;25.948;2023-05-07T03:23:51;9.27;;;5.88;;
71343;SDS011;59146;43.850;25.948;2023-05-07T03:26:16;12.43;;;5.95;;
71343;SDS011;59146;43.850;25.948;2023-05-07T03:28:42;8.95;;;5.75;;
71343;SDS011;59146;43.850;25.948;2023-05-07T03:31:07;13.88;;;5.55;;
71343;SDS011;59146;43.850;25.948;2023-05-07T03:33:33;13.57;;;6.22;;
71343;SDS011;59146;43.850;25.948;2023-05-07T03:35:59;9.68;;;5.75;;
71343;SDS011;59146;43.850;25.948;2023-05-07T03:38:25;9.43;;;6.07;;
71343;SDS011;59146;43.850;25.948;2023-05-07T03:40:51;9.43;;;6.05;;
71343;SDS011;59146;43.850;25.948;2023-05-07T03:43:16;7.28;;;5.53;;
71343;SDS011;59146;43.850;25.948;2023-05-07T03:45:42;7.78;;;5.63;;
71343;SDS011;59146;43.850;25.948;2023-05-07T03:48:07;9.15;;;5.13;;
71343;SDS011;59146;43.850;25.948;2023-05-07T03:50:33;11.95;;;5.18;;
71343;SDS011;59146;43.850;25.948;2023-05-07T03:52:58;10.13;;;5.72;;
71343;SDS011;59146;43.850;25.948;2023-05-07T03:55:23;8.75;;;4.95;;
71343;SDS011;59146;43.850;25.948;2023-05-07T03:57:49;7.07;;;4.80;;
71343;SDS011;59146;43.850;25.948;2023-05-07T04:00:15;11.05;;;5.15;;
71343;SDS011;59146;43.850;25.948;2023-05-07T04:02:41;13.77;;;4.50;;
71343;SDS011;59146;43.850;25.948;2023-05-07T04:05:06;7.35;;;3.95;;
71343;SDS011;59146;43.850;25.948;2023-05-07T04:07:32;13.13;;;4.45;;
71343;SDS011;59146;43.850;25.948;2023-05-07T04:09:58;11.48;;;4.18;;
71343;SDS011;59146;43.850;25.948;2023-05-07T04:12:23;10.65;;;4.25;;
71343;SDS011;59146;43.850;25.948;2023-05-07T04:14:48;10.07;;;4.25;;
71343;SDS011;59146;43.850;25.948;2023-05-07T04:17:14;9.68;;;4.30;;
71343;SDS011;59146;43.850;25.948;2023-05-07T04:19:39;7.93;;;4.15;;
71343;SDS011;59146;43.850;25.948;2023-05-07T04:22:05;9.60;;;3.75;;
71343;SDS011;59146;43.850;25.948;2023-05-07T04:24:33;8.57;;;3.60;;
71343;SDS011;59146;43.850;25.948;2023-05-07T04:26:58;11.40;;;4.22;;
71343;SDS011;59146;43.850;25.948;2023-05-07T04:29:24;5.05;;;3.85;;
71343;SDS011;59146;43.850;25.948;2023-05-07T04:31:49;8.85;;;4.65;;
71343;SDS011;59146;43.850;25.948;2023-05-07T04:34:15;5.40;;;4.03;;
71343;SDS011;59146;43.850;25.948;2023-05-07T04:36:41;9.48;;;4.40;;
71343;SDS011;59146;43.850;25.948;2023-05-07T04:39:07;10.73;;;4.70;;
71343;SDS011;59146;43.850;25.948;2023-05-07T04:41:33;7.70;;;4.80;;
71343;SDS011;59146;43.850;25.948;2023-05-07T04:43:58;9.88;;;5.20;;
71343;SDS011;59146;43.850;25.948;2023-05-07T04:46:24;7.72;;;4.80;;
71343;SDS011;59146;43.850;25.948;2023-05-07T04:48:49;8.80;;;4.72;;
71343;SDS011;59146;43.850;25.948;2023-05-07T04:51:16;8.55;;;4.85;;
71343;SDS011;59146;43.850;25.948;2023-05-07T04:53:41;11.65;;;4.90;;
71343;SDS011;59146;43.850;25.948;2023-05-07T04:56:08;9.40;;;4.78;;
71343;SDS011;59146;43.850;25.948;2023-05-07T04:58:33;10.30;;;4.78;;
71343;SDS011;59146;43.850;25.948;2023-05-07T05:00:59;11.45;;;4.82;;
71343;SDS011;59146;43.850;25.948;2023-05-07T05:03:25;12.38;;;4.80;;
71343;SDS011;59146;43.850;25.948;2023-05-07T05:05:51;9.82;;;5.10;;
71343;SDS011;59146;43.850;25.948;2023-05-07T05:08:17;17.75;;;5.05;;
71343;SDS011;59146;43.850;25.948;2023-05-07T05:10:42;11.13;;;5.00;;
71343;SDS011;59146;43.850;25.948;2023-05-07T05:13:08;13.40;;;6.07;;
71343;SDS011;59146;43.850;25.948;2023-05-07T05:15:34;11.35;;;5.97;;
71343;SDS011;59146;43.850;25.948;2023-05-07T05:17:59;8.85;;;6.00;;
71343;SDS011;59146;43.850;25.948;2023-05-07T05:20:25;13.68;;;5.85;;
71343;SDS011;59146;43.850;25.948;2023-05-07T05:22:51;7.65;;;5.63;;
71343;SDS011;59146;43.850;25.948;2023-05-07T05:25:16;8.88;;;5.15;;
71343;SDS011;59146;43.850;25.948;2023-05-07T05:27:42;9.77;;;5.95;;
71343;SDS011;59146;43.850;25.948;2023-05-07T05:30:07;10.10;;;5.63;;
71343;SDS011;59146;43.850;25.948;2023-05-07T05:32:33;10.55;;;6.35;;
71343;SDS011;59146;43.850;25.948;2023-05-07T05:34:58;10.10;;;6.63;;
71343;SDS011;59146;43.850;25.948;2023-05-07T05:37:24;10.55;;;6.50;;
71343;SDS011;59146;43.850;25.948;2023-05-07T05:39:50;11.88;;;6.15;;
71343;SDS011;59146;43.850;25.948;2023-05-07T05:42:15;12.73;;;5.82;;
71343;SDS011;59146;43.850;25.948;2023-05-07T05:44:41;10.88;;;6.32;;
71343;SDS011;59146;43.850;25.948;2023-05-07T05:47:06;13.52;;;6.68;;
71343;SDS011;59146;43.850;25.948;2023-05-07T05:49:32;12.35;;;6.65;;
71343;SDS011;59146;43.850;25.948;2023-05-07T05:51:57;14.88;;;6.10;;
71343;SDS011;59146;43.850;25.948;2023-05-07T05:54:23;23.20;;;8.77;;
71343;SDS011;59146;43.850;25.948;2023-05-07T05:56:48;12.00;;;6.00;;
71343;SDS011;59146;43.850;25.948;2023-05-07T05:59:14;12.10;;;7.25;;
71343;SDS011;59146;43.850;25.948;2023-05-07T06:01:39;13.35;;;6.68;;
71343;SDS011;59146;43.850;25.948;2023-05-07T06:04:05;16.77;;;6.80;;
71343;SDS011;59146;43.850;25.948;2023-05-07T06:06:30;19.50;;;6.07;;
71343;SDS011;59146;43.850;25.948;2023-05-07T06:08:57;10.70;;;6.03;;
71343;SDS011;59146;43.850;25.948;2023-05-07T06:11:22;12.50;;;6.10;;
71343;SDS011;59146;43.850;25.948;2023-05-07T06:13:48;10.98;;;5.53;;
71343;SDS011;59146;43.850;25.948;2023-05-07T06:16:13;17.85;;;6.13;;
71343;SDS011;59146;43.850;25.948;2023-05-07T06:18:40;11.75;;;5.70;;
71343;SDS011;59146;43.850;25.948;2023-05-07T06:21:06;12.70;;;6.38;;
71343;SDS011;59146;43.850;25.948;2023-05-07T06:23:34;12.90;;;6.53;;
71343;SDS011;59146;43.850;25.948;2023-05-07T06:26:00;11.00;;;5.68;;
71343;SDS011;59146;43.850;25.948;2023-05-07T06:28:25;12.45;;;5.97;;
71343;SDS011;59146;43.850;25.948;2023-05-07T06:30:51;12.02;;;6.60;;
71343;SDS011;59146;43.850;25.948;2023-05-07T06:33:17;11.82;;;5.85;;
71343;SDS011;59146;43.850;25.948;2023-05-07T06:35:42;10.52;;;5.97;;
71343;SDS011;59146;43.850;25.948;2023-05-07T06:38:07;20.80;;;6.78;;
71343;SDS011;59146;43.850;25.948;2023-05-07T06:40:33;11.80;;;5.68;;
71343;SDS011;59146;43.850;25.948;2023-05-07T06:42:58;11.65;;;4.80;;
71343;SDS011;59146;43.850;25.948;2023-05-07T06:45:23;7.28;;;5.43;;
71343;SDS011;59146;43.850;25.948;2023-05-07T06:47:50;13.40;;;5.00;;
71343;SDS011;59146;43.850;25.948;2023-05-07T06:50:15;10.15;;;4.70;;
71343;SDS011;59146;43.850;25.948;2023-05-07T06:52:42;8.70;;;4.32;;
71343;SDS011;59146;43.850;25.948;2023-05-07T06:55:08;7.32;;;4.28;;
71343;SDS011;59146;43.850;25.948;2023-05-07T06:57:33;7.35;;;4.10;;
71343;SDS011;59146;43.850;25.948;2023-05-07T06:59:59;8.35;;;4.13;;
71343;SDS011;59146;43.850;25.948;2023-05-07T07:02:24;11.20;;;4.50;;
71343;SDS011;59146;43.850;25.948;2023-05-07T07:04:50;8.93;;;2.55;;
71343;SDS011;59146;43.850;25.948;2023-05-07T07:07:15;6.20;;;2.60;;
71343;SDS011;59146;43.850;25.948;2023-05-07T07:09:40;9.25;;;3.03;;
71343;SDS011;59146;43.850;25.948;2023-05-07T07:12:06;10.52;;;2.95;;
71343;SDS011;59146;43.850;25.948;2023-05-07T07:14:31;13.15;;;3.90;;
71343;SDS011;59146;43.850;25.948;2023-05-07T07:16:57;10.77;;;4.10;;
71343;SDS011;59146;43.850;25.948;2023-05-07T07:19:22;8.70;;;4.03;;
71343;SDS011;59146;43.850;25.948;2023-05-07T07:21:47;7.68;;;2.53;;
71343;SDS011;59146;43.850;25.948;2023-05-07T07:24:13;7.00;;;2.33;;
71343;SDS011;59146;43.850;25.948;2023-05-07T07:26:44;3.80;;;2.50;;
71343;SDS011;59146;43.850;25.948;2023-05-07T07:29:09;9.77;;;2.97;;
71343;SDS011;59146;43.850;25.948;2023-05-07T07:31:35;8.18;;;2.92;;
71343;SDS011;59146;43.850;25.948;2023-05-07T07:34:00;4.18;;;2.95;;
71343;SDS011;59146;43.850;25.948;2023-05-07T07:36:26;8.20;;;2.70;;
71343;SDS011;59146;43.850;25.948;2023-05-07T07:38:52;10.07;;;3.35;;
71343;SDS011;59146;43.850;25.948;2023-05-07T07:41:18;9.52;;;2.67;;
71343;SDS011;59146;43.850;25.948;2023-05-07T07:43:44;13.23;;;3.05;;
71343;SDS011;59146;43.850;25.948;2023-05-07T07:46:11;10.38;;;3.05;;
71343;SDS011;59146;43.850;25.948;2023-05-07T07:48:37;11.07;;;2.72;;
71343;SDS011;59146;43.850;25.948;2023-05-07T07:51:02;8.18;;;3.70;;
71343;SDS011;59146;43.850;25.948;2023-05-07T07:53:28;6.65;;;2.42;;
71343;SDS011;59146;43.850;25.948;2023-05-07T07:55:53;8.38;;;3.05;;
71343;SDS011;59146;43.850;25.948;2023-05-07T07:58:19;9.10;;;3.97;;
71343;SDS011;59146;43.850;25.948;2023-05-07T08:00:44;9.63;;;3.03;;
71343;SDS011;59146;43.850;25.948;2023-05-07T08:03:10;7.00;;;2.70;;
71343;SDS011;59146;43.850;25.948;2023-05-07T08:05:35;8.63;;;3.25;;
71343;SDS011;59146;43.850;25.948;2023-05-07T08:08:01;8.63;;;2.83;;
71343;SDS011;59146;43.850;25.948;2023-05-07T08:10:26;4.85;;;2.65;;
71343;SDS011;59146;43.850;25.948;2023-05-07T08:12:52;9.00;;;2.67;;
71343;SDS011;59146;43.850;25.948;2023-05-07T08:15:18;4.25;;;2.40;;
71343;SDS011;59146;43.850;25.948;2023-05-07T08:17:43;8.02;;;2.50;;
71343;SDS011;59146;43.850;25.948;2023-05-07T08:20:11;7.53;;;2.33;;
71343;SDS011;59146;43.850;25.948;2023-05-07T08:22:37;10.38;;;3.05;;
71343;SDS011;59146;43.850;25.948;2023-05-07T08:25:02;9.20;;;2.53;;
71343;SDS011;59146;43.850;25.948;2023-05-07T08:27:28;9.48;;;3.17;;
71343;SDS011;59146;43.850;25.948;2023-05-07T08:29:54;9.65;;;3.40;;
71343;SDS011;59146;43.850;25.948;2023-05-07T08:32:20;5.47;;;2.92;;
71343;SDS011;59146;43.850;25.948;2023-05-07T08:34:45;8.70;;;2.97;;
71343;SDS011;59146;43.850;25.948;2023-05-07T08:37:13;4.65;;;2.60;;
71343;SDS011;59146;43.850;25.948;2023-05-07T08:39:39;7.18;;;2.30;;
71343;SDS011;59146;43.850;25.948;2023-05-07T08:42:04;7.90;;;2.60;;
71343;SDS011;59146;43.850;25.948;2023-05-07T08:44:34;5.60;;;3.17;;
71343;SDS011;59146;43.850;25.948;2023-05-07T08:47:03;2.63;;;2.20;;
71343;SDS011;59146;43.850;25.948;2023-05-07T08:49:33;13.05;;;2.40;;
71343;SDS011;59146;43.850;25.948;2023-05-07T08:51:59;8.57;;;2.53;;
71343;SDS011;59146;43.850;25.948;2023-05-07T08:54:25;7.72;;;2.63;;
71343;SDS011;59146;43.850;25.948;2023-05-07T08:56:52;6.28;;;2.90;;
71343;SDS011;59146;43.850;25.948;2023-05-07T08:59:18;7.53;;;2.60;;
71343;SDS011;59146;43.850;25.948;2023-05-07T09:01:43;5.95;;;2.78;;
71343;SDS011;59146;43.850;25.948;2023-05-07T09:04:09;10.68;;;3.22;;
71343;SDS011;59146;43.850;25.948;2023-05-07T09:06:35;6.80;;;2.22;;
71343;SDS011;59146;43.850;25.948;2023-05-07T09:09:01;11.73;;;3.15;;
71343;SDS011;59146;43.850;25.948;2023-05-07T09:11:30;6.60;;;2.40;;
71343;SDS011;59146;43.850;25.948;2023-05-07T09:13:55;6.20;;;2.38;;
71343;SDS011;59146;43.850;25.948;2023-05-07T09:16:23;7.05;;;2.88;;
71343;SDS011;59146;43.850;25.948;2023-05-07T09:18:53;11.35;;;3.55;;
71343;SDS011;59146;43.850;25.948;2023-05-07T09:21:19;6.30;;;2.10;;
71343;SDS011;59146;43.850;25.948;2023-05-07T09:23:47;5.13;;;3.20;;
71343;SDS011;59146;43.850;25.948;2023-05-07T09:26:15;5.95;;;2.22;;
71343;SDS011;59146;43.850;25.948;2023-05-07T09:28:41;6.82;;;2.60;;
71343;SDS011;59146;43.850;25.948;2023-05-07T09:31:07;6.70;;;2.80;;
71343;SDS011;59146;43.850;25.948;2023-05-07T09:33:33;3.53;;;2.13;;
71343;SDS011;59146;43.850;25.948;2023-05-07T09:36:02;7.75;;;2.58;;
71343;SDS011;59146;43.850;25.948;2023-05-07T09:38:28;4.40;;;2.20;;
71343;SDS011;59146;43.850;25.948;2023-05-07T09:43:36;6.03;;;2.47;;
71343;SDS011;59146;43.850;25.948;2023-05-07T09:46:06;4.75;;;2.08;;
71343;SDS011;59146;43.850;25.948;2023-05-07T09:48:39;5.72;;;2.53;;
71343;SDS011;59146;43.850;25.948;2023-05-07T09:51:29;3.90;;;1.90;;
71343;SDS011;59146;43.850;25.948;2023-05-07T09:53:59;6.75;;;2.47;;
71343;SDS011;59146;43.850;25.948;2023-05-07T09:56:29;9.93;;;2.50;;
71343;SDS011;59146;43.850;25.948;2023-05-07T09:58:55;5.03;;;2.20;;
71343;SDS011;59146;43.850;25.948;2023-05-07T10:01:23;4.03;;;2.30;;
71343;SDS011;59146;43.850;25.948;2023-05-07T10:03:50;5.75;;;2.05;;
71343;SDS011;59146;43.850;25.948;2023-05-07T10:06:17;3.15;;;2.10;;
71343;SDS011;59146;43.850;25.948;2023-05-07T10:08:45;6.32;;;2.22;;
71343;SDS011;59146;43.850;25.948;2023-05-07T10:11:10;7.20;;;2.00;;
71343;SDS011;59146;43.850;25.948;2023-05-07T10:13:36;6.88;;;2.10;;
71343;SDS011;59146;43.850;25.948;2023-05-07T10:16:05;4.35;;;2.00;;
71343;SDS011;59146;43.850;25.948;2023-05-07T10:18:31;7.93;;;2.40;;
71343;SDS011;59146;43.850;25.948;2023-05-07T10:21:07;5.13;;;2.00;;
71343;SDS011;59146;43.850;25.948;2023-05-07T10:23:36;5.85;;;2.40;;
71343;SDS011;59146;43.850;25.948;2023-05-07T10:26:03;3.97;;;1.98;;
71343;SDS011;59146;43.850;25.948;2023-05-07T10:28:30;7.28;;;2.10;;
71343;SDS011;59146;43.850;25.948;2023-05-07T10:31:18;4.88;;;2.28;;
71343;SDS011;59146;43.850;25.948;2023-05-07T10:34:13;6.57;;;2.08;;
71343;SDS011;59146;43.850;25.948;2023-05-07T10:36:43;6.85;;;2.58;;
71343;SDS011;59146;43.850;25.948;2023-05-07T10:39:09;3.72;;;2.00;;
71343;SDS011;59146;43.850;25.948;2023-05-07T10:41:35;6.70;;;2.28;;
71343;SDS011;59146;43.850;25.948;2023-05-07T10:44:01;6.35;;;2.40;;
71343;SDS011;59146;43.850;25.948;2023-05-07T10:46:27;6.68;;;2.30;;
71343;SDS011;59146;43.850;25.948;2023-05-07T10:51:28;4.95;;;2.50;;
71343;SDS011;59146;43.850;25.948;2023-05-07T10:56:36;6.35;;;2.63;;
71343;SDS011;59146;43.850;25.948;2023-05-07T11:01:54;6.40;;;2.00;;
71343;SDS011;59146;43.850;25.948;2023-05-07T11:04:31;4.53;;;2.15;;
71343;SDS011;59146;43.850;25.948;2023-05-07T11:15:11;7.68;;;2.15;;
71343;SDS011;59146;43.850;25.948;2023-05-07T11:17:53;4.93;;;2.13;;
71343;SDS011;59146;43.850;25.948;2023-05-07T11:20:20;5.10;;;2.42;;
71343;SDS011;59146;43.850;25.948;2023-05-07T11:22:46;7.50;;;2.30;;
71343;SDS011;59146;43.850;25.948;2023-05-07T11:25:17;4.68;;;2.17;;
71343;SDS011;59146;43.850;25.948;2023-05-07T11:27:46;2.65;;;1.95;;
71343;SDS011;59146;43.850;25.948;2023-05-07T11:30:18;4.35;;;2.03;;
71343;SDS011;59146;43.850;25.948;2023-05-07T11:32:44;3.55;;;2.17;;
71343;SDS011;59146;43.850;25.948;2023-05-07T11:35:12;4.07;;;2.15;;
71343;SDS011;59146;43.850;25.948;2023-05-07T11:37:40;4.13;;;2.13;;
71343;SDS011;59146;43.850;25.948;2023-05-07T11:40:07;6.95;;;2.47;;
71343;SDS011;59146;43.850;25.948;2023-05-07T11:42:36;7.53;;;1.95;;
71343;SDS011;59146;43.850;25.948;2023-05-07T11:45:04;5.40;;;2.33;;
71343;SDS011;59146;43.850;25.948;2023-05-07T11:47:30;4.38;;;2.05;;
71343;SDS011;59146;43.850;25.948;2023-05-07T11:49:56;5.03;;;2.47;;
71343;SDS011;59146;43.850;25.948;2023-05-07T11:52:23;7.97;;;2.50;;
71343;SDS011;59146;43.850;25.948;2023-05-07T11:54:52;6.78;;;2.42;;
71343;SDS011;59146;43.850;25.948;2023-05-07T11:57:23;6.75;;;2.30;;
71343;SDS011;59146;43.850;25.948;2023-05-07T11:59:59;7.88;;;2.20;;
71343;SDS011;59146;43.850;25.948;2023-05-07T12:02:27;8.18;;;2.58;;
71343;SDS011;59146;43.850;25.948;2023-05-07T12:04:53;9.55;;;2.60;;
71343;SDS011;59146;43.850;25.948;2023-05-07T12:07:20;3.70;;;2.15;;
71343;SDS011;59146;43.850;25.948;2023-05-07T12:09:46;4.07;;;2.03;;
71343;SDS011;59146;43.850;25.948;2023-05-07T12:12:12;7.20;;;2.13;;
71343;SDS011;59146;43.850;25.948;2023-05-07T12:14:44;5.00;;;2.80;;
71343;SDS011;59146;43.850;25.948;2023-05-07T12:17:11;8.40;;;2.22;;
71343;SDS011;59146;43.850;25.948;2023-05-07T12:19:38;6.13;;;2.72;;
71343;SDS011;59146;43.850;25.948;2023-05-07T12:22:05;4.25;;;2.00;;
71343;SDS011;59146;43.850;25.948;2023-05-07T12:24:45;8.07;;;2.83;;
71343;SDS011;59146;43.850;25.948;2023-05-07T12:27:14;4.97;;;2.03;;
71343;SDS011;59146;43.850;25.948;2023-05-07T12:29:47;7.85;;;2.78;;
71343;SDS011;59146;43.850;25.948;2023-05-07T12:32:17;4.65;;;2.47;;
71343;SDS011;59146;43.850;25.948;2023-05-07T12:34:44;9.40;;;2.70;;
71343;SDS011;59146;43.850;25.948;2023-05-07T12:37:10;8.85;;;2.40;;
71343;SDS011;59146;43.850;25.948;2023-05-07T12:39:35;9.80;;;2.58;;
71343;SDS011;59146;43.850;25.948;2023-05-07T12:42:01;7.90;;;2.00;;
71343;SDS011;59146;43.850;25.948;2023-05-07T12:44:30;4.65;;;1.88;;
71343;SDS011;59146;43.850;25.948;2023-05-07T12:46:57;4.85;;;2.47;;
71343;SDS011;59146;43.850;25.948;2023-05-07T12:49:23;8.38;;;2.38;;
71343;SDS011;59146;43.850;25.948;2023-05-07T12:51:49;6.93;;;2.30;;
71343;SDS011;59146;43.850;25.948;2023-05-07T12:54:28;5.35;;;2.50;;
71343;SDS011;59146;43.850;25.948;2023-05-07T12:57:15;6.35;;;2.30;;
71343;SDS011;59146;43.850;25.948;2023-05-07T12:59:43;6.80;;;2.60;;
71343;SDS011;59146;43.850;25.948;2023-05-07T13:02:09;11.52;;;2.83;;
71343;SDS011;59146;43.850;25.948;2023-05-07T13:04:35;3.60;;;2.35;;
71343;SDS011;59146;43.850;25.948;2023-05-07T13:07:01;4.32;;;2.40;;
71343;SDS011;59146;43.850;25.948;2023-05-07T13:09:30;4.05;;;2.38;;
71343;SDS011;59146;43.850;25.948;2023-05-07T13:11:56;5.43;;;2.30;;
71343;SDS011;59146;43.850;25.948;2023-05-07T13:14:21;3.05;;;2.08;;
71343;SDS011;59146;43.850;25.948;2023-05-07T13:16:47;7.05;;;2.22;;
71343;SDS011;59146;43.850;25.948;2023-05-07T13:19:13;6.15;;;2.40;;
71343;SDS011;59146;43.850;25.948;2023-05-07T13:21:38;4.05;;;2.40;;
71343;SDS011;59146;43.850;25.948;2023-05-07T13:24:04;6.88;;;2.70;;
71343;SDS011;59146;43.850;25.948;2023-05-07T13:26:30;5.65;;;2.20;;
71343;SDS011;59146;43.850;25.948;2023-05-07T13:28:56;4.38;;;2.15;;
71343;SDS011;59146;43.850;25.948;2023-05-07T13:31:21;5.80;;;2.28;;
71343;SDS011;59146;43.850;25.948;2023-05-07T13:33:47;2.30;;;2.00;;
71343;SDS011;59146;43.850;25.948;2023-05-07T13:36:12;7.78;;;2.40;;
71343;SDS011;59146;43.850;25.948;2023-05-07T13:38:41;7.88;;;2.50;;
71343;SDS011;59146;43.850;25.948;2023-05-07T13:41:06;4.43;;;2.63;;
71343;SDS011;59146;43.850;25.948;2023-05-07T13:43:31;6.10;;;2.63;;
71343;SDS011;59146;43.850;25.948;2023-05-07T13:45:59;8.88;;;2.20;;
71343;SDS011;59146;43.850;25.948;2023-05-07T13:48:25;7.85;;;2.50;;
71343;SDS011;59146;43.850;25.948;2023-05-07T13:50:50;4.95;;;2.50;;
71343;SDS011;59146;43.850;25.948;2023-05-07T13:53:16;9.40;;;2.17;;
71343;SDS011;59146;43.850;25.948;2023-05-07T13:55:43;6.40;;;2.47;;
71343;SDS011;59146;43.850;25.948;2023-05-07T13:58:09;4.88;;;2.72;;
71343;SDS011;59146;43.850;25.948;2023-05-07T14:00:35;4.72;;;2.33;;
71343;SDS011;59146;43.850;25.948;2023-05-07T14:03:01;7.18;;;2.75;;
71343;SDS011;59146;43.850;25.948;2023-05-07T14:05:26;6.25;;;2.30;;
71343;SDS011;59146;43.850;25.948;2023-05-07T14:07:53;5.03;;;2.60;;
71343;SDS011;59146;43.850;25.948;2023-05-07T14:10:19;3.22;;;2.30;;
71343;SDS011;59146;43.850;25.948;2023-05-07T14:12:45;4.70;;;2.25;;
71343;SDS011;59146;43.850;25.948;2023-05-07T14:15:11;7.20;;;2.65;;
71343;SDS011;59146;43.850;25.948;2023-05-07T14:17:37;8.23;;;2.25;;
71343;SDS011;59146;43.850;25.948;2023-05-07T14:20:02;12.00;;;2.92;;
71343;SDS011;59146;43.850;25.948;2023-05-07T14:22:28;9.43;;;2.90;;
71343;SDS011;59146;43.850;25.948;2023-05-07T14:24:53;4.80;;;2.38;;
71343;SDS011;59146;43.850;25.948;2023-05-07T14:27:19;8.02;;;2.85;;
71343;SDS011;59146;43.850;25.948;2023-05-07T14:29:44;6.70;;;2.55;;
71343;SDS011;59146;43.850;25.948;2023-05-07T14:32:10;6.53;;;2.40;;
71343;SDS011;59146;43.850;25.948;2023-05-07T14:34:36;6.32;;;2.58;;
71343;SDS011;59146;43.850;25.948;2023-05-07T14:37:01;4.18;;;2.15;;
71343;SDS011;59146;43.850;25.948;2023-05-07T14:39:28;4.45;;;2.40;;
71343;SDS011;59146;43.850;25.948;2023-05-07T14:41:54;6.85;;;2.30;;
71343;SDS011;59146;43.850;25.948;2023-05-07T14:44:21;4.53;;;2.50;;